Time;durP1;ratioP1;P1;durP2;ratioP2;P2;SDS_P1;SDS_P2;PMS_P1;PMS_P2;Temp;Humidity;BMP_temperature;BMP_pressure;BME280_temperature;BME280_humidity;BME280_pressure;Samples;Min_cycle;Max_cycle;Signal;HPM_P1;HPM_P2
2023/05/21 00:00:30;;;;;;;1.35;1.23;;;;;;;16.13;58.02;101103.69;5188455;28;20065;-90
2023/05/21 00:03:22;;;;;;;1.80;1.70;;;;;;;16.16;57.45;101109.72;5203809;28;20049;-89
2023/05/21 00:06:14;;;;;;;0.80;0.80;;;;;;;16.17;57.56;101103.50;5192549;28;20445;-88
2023/05/21 00:09:05;;;;;;;0.98;0.98;;;;;;;16.16;57.83;101103.53;5186669;28;20088;-90
2023/05/21 00:11:56;;;;;;;5.68;1.33;;;;;;;16.12;58.01;101100.19;5190883;28;20033;-90
2023/05/21 00:14:47;;;;;;;1.35;1.25;;;;;;;16.11;58.14;101102.91;5190922;28;20014;-94
2023/05/21 00:17:38;;;;;;;0.85;0.85;;;;;;;16.02;59.10;101090.94;5201685;28;20037;-89
2023/05/21 00:20:31;;;;;;;0.93;0.93;;;;;;;15.91;58.93;101082.59;5189336;28;20619;-90
2023/05/21 00:23:21;;;;;;;4.72;1.77;;;;;;;16.04;57.90;101092.59;5192732;28;20396;-91
2023/05/21 00:26:12;;;;;;;0.90;0.90;;;;;;;16.04;58.49;101087.31;5203579;28;20035;-91
2023/05/21 00:29:03;;;;;;;2.88;1.25;;;;;;;16.04;58.01;101091.72;5194768;28;20116;-90
2023/05/21 00:31:54;;;;;;;1.25;1.15;;;;;;;15.86;59.68;101085.44;5199870;28;20052;-90
2023/05/21 00:34:46;;;;;;;0.85;0.85;;;;;;;15.91;59.58;101087.91;5189021;28;20013;-90
2023/05/21 00:37:36;;;;;;;3.25;2.80;;;;;;;15.93;58.34;101089.53;5212498;28;20105;-92
2023/05/21 00:40:27;;;;;;;1.60;1.50;;;;;;;16.01;58.51;101087.44;5196578;28;20029;-90
2023/05/21 00:43:20;;;;;;;0.80;0.80;;;;;;;16.02;58.69;101083.00;5195303;28;20029;-91
2023/05/21 00:46:17;;;;;;;1.48;1.40;;;;;;;15.80;59.35;101085.69;5172358;28;20081;-90
2023/05/21 00:49:08;;;;;;;0.65;0.65;;;;;;;15.86;58.59;101082.81;5181030;28;20361;-88
2023/05/21 00:52:02;;;;;;;1.02;1.02;;;;;;;15.85;58.56;101084.59;5187770;28;20034;-90
2023/05/21 00:54:54;;;;;;;0.88;0.88;;;;;;;15.93;59.10;101078.13;5204953;28;20484;-89
2023/05/21 00:57:45;;;;;;;0.75;0.75;;;;;;;15.98;58.74;101082.28;5179611;28;20053;-90
2023/05/21 01:00:36;;;;;;;0.55;0.55;;;;;;;15.69;60.88;101076.44;5209824;28;20029;-91
2023/05/21 01:03:28;;;;;;;1.23;1.17;;;;;;;15.76;60.45;101081.44;5180386;28;20097;-90
2023/05/21 01:06:19;;;;;;;2.58;1.80;;;;;;;15.73;61.12;101082.44;5199826;28;20099;-94
2023/05/21 01:09:10;;;;;;;3.80;1.27;;;;;;;15.79;60.25;101083.97;5184722;28;20027;-90
2023/05/21 01:12:02;;;;;;;2.35;1.73;;;;;;;15.78;60.16;101084.91;5162418;28;20034;-90
2023/05/21 01:14:53;;;;;;;1.40;1.30;;;;;;;15.69;59.94;101081.72;5188003;28;20028;-90
2023/05/21 01:17:44;;;;;;;1.35;1.23;;;;;;;15.65;59.96;101087.19;5195940;28;20033;-89
2023/05/21 01:20:36;;;;;;;1.20;1.15;;;;;;;15.52;61.77;101076.28;5202711;28;20062;-93
2023/05/21 01:23:28;;;;;;;1.23;1.13;;;;;;;15.56;60.74;101068.16;5203042;28;20034;-89
2023/05/21 01:26:19;;;;;;;1.90;1.77;;;;;;;15.51;60.46;101072.78;5193187;28;20041;-90
2023/05/21 01:29:12;;;;;;;2.00;1.40;;;;;;;15.53;61.17;101078.00;5188037;28;20022;-88
2023/05/21 01:32:09;;;;;;;1.67;1.23;;;;;;;15.49;60.92;101068.50;5170145;28;20069;-89
2023/05/21 01:35:11;;;;;;;1.00;0.73;;;;;;;15.49;60.45;101069.34;5170407;28;20033;-89
2023/05/21 01:38:21;;;;;;;1.60;1.50;;;;;;;15.51;60.16;101066.63;5197868;28;20044;-91
2023/05/21 01:41:16;;;;;;;1.33;1.02;;;;;;;15.37;61.77;101060.16;5202871;28;20455;-89
2023/05/21 01:44:09;;;;;;;3.60;2.15;;;;;;;15.45;60.02;101058.97;5202505;28;20021;-91
2023/05/21 01:47:01;;;;;;;1.48;1.38;;;;;;;15.37;61.51;101065.44;5193047;28;20026;-90
2023/05/21 01:49:52;;;;;;;26.95;2.97;;;;;;;15.37;61.09;101065.44;5177220;28;20034;-90
2023/05/21 01:52:59;;;;;;;2.00;1.83;;;;;;;15.46;60.47;101068.63;5195105;28;20036;-89
2023/05/21 01:55:50;;;;;;;2.55;1.30;;;;;;;15.43;60.06;101067.81;5179649;28;20096;-92
2023/05/21 01:58:42;;;;;;;0.70;0.70;;;;;;;15.46;59.99;101063.31;5165376;28;20037;-92
2023/05/21 02:01:33;;;;;;;2.17;1.70;;;;;;;15.43;61.26;101065.16;5188849;28;20044;-90
2023/05/21 02:04:24;;;;;;;0.75;0.75;;;;;;;15.49;60.43;101063.22;5182089;28;20429;-90
2023/05/21 02:07:15;;;;;;;1.67;1.42;;;;;;;15.40;61.28;101059.16;5192704;28;20038;-89
2023/05/21 02:10:06;;;;;;;1.38;1.27;;;;;;;15.39;60.95;101057.44;5182400;28;20028;-90
2023/05/21 02:12:58;;;;;;;1.60;1.50;;;;;;;15.21;62.21;101053.78;5187993;28;20029;-88
2023/05/21 02:15:50;;;;;;;1.80;1.50;;;;;;;15.21;63.18;101056.41;5200283;28;20018;-92
2023/05/21 02:18:45;;;;;;;2.58;2.17;;;;;;;15.26;61.58;101039.44;5198588;28;20041;-91
2023/05/21 02:21:36;;;;;;;0.68;0.68;;;;;;;15.29;61.10;101046.38;5197915;28;20048;-91
2023/05/21 02:24:26;;;;;;;2.33;1.48;;;;;;;15.31;60.44;101052.47;5202951;28;20404;-89
2023/05/21 02:27:17;;;;;;;0.98;0.98;;;;;;;15.21;63.18;101044.03;5177446;28;20034;-89
2023/05/21 02:30:11;;;;;;;0.95;0.95;;;;;;;15.23;62.01;101046.66;5184326;28;20026;-89
2023/05/21 02:33:02;;;;;;;0.30;0.30;;;;;;;15.24;61.83;101043.94;5195911;28;20033;-88
2023/05/21 02:35:53;;;;;;;0.73;0.73;;;;;;;15.24;61.50;101038.66;5178852;28;20026;-89
2023/05/21 02:38:45;;;;;;;0.52;0.52;;;;;;;15.23;61.17;101034.28;5168785;28;20404;-89
2023/05/21 02:41:36;;;;;;;5.15;1.23;;;;;;;15.22;61.06;101026.41;5186987;28;20129;-91
2023/05/21 02:44:28;;;;;;;2.50;1.48;;;;;;;15.13;62.84;101037.38;5191206;28;20060;-89
2023/05/21 02:47:19;;;;;;;1.17;1.08;;;;;;;15.20;61.53;101042.34;5198663;28;20048;-90
2023/05/21 02:50:12;;;;;;;0.88;0.88;;;;;;;15.17;61.24;101034.53;5199682;28;20109;-90
2023/05/21 02:53:04;;;;;;;0.95;0.95;;;;;;;15.20;60.88;101025.63;5198974;28;20061;-89
2023/05/21 02:55:55;;;;;;;0.73;0.73;;;;;;;15.21;62.15;101029.97;5175813;28;20072;-90
2023/05/21 02:58:47;;;;;;;0.82;0.82;;;;;;;15.14;61.61;101031.16;5179474;28;20039;-91
2023/05/21 03:01:40;;;;;;;0.77;0.77;;;;;;;14.98;64.29;101029.16;5190945;28;20041;-89
2023/05/21 03:04:31;;;;;;;6.13;1.93;;;;;;;14.98;63.74;101021.22;5189243;28;20057;-91
2023/05/21 03:07:23;;;;;;;0.57;0.57;;;;;;;15.05;61.83;101022.69;5176912;28;20492;-90
2023/05/21 03:10:14;;;;;;;1.05;0.98;;;;;;;15.06;61.56;101020.91;5207878;28;20033;-90
2023/05/21 03:13:05;;;;;;;5.57;2.35;;;;;;;14.98;62.77;101023.88;5172467;28;20071;-89
2023/05/21 03:15:56;;;;;;;1.15;1.05;;;;;;;14.94;62.94;101022.25;5206102;28;20044;-91
2023/05/21 03:18:47;;;;;;;0.63;0.63;;;;;;;14.90;63.39;101018.03;5200573;28;20056;-89
2023/05/21 03:21:38;;;;;;;3.95;1.25;;;;;;;14.93;62.78;101013.50;5193752;28;20040;-90
2023/05/21 03:24:29;;;;;;;1.75;1.58;;;;;;;14.87;62.97;101018.16;5182259;28;20029;-91
2023/05/21 03:27:20;;;;;;;0.50;0.50;;;;;;;14.89;63.32;101021.59;5186991;28;20037;-90
2023/05/21 03:30:11;;;;;;;0.80;0.80;;;;;;;14.96;62.22;101020.44;5200581;28;20029;-90
2023/05/21 03:33:03;;;;;;;1.38;1.23;;;;;;;14.86;65.00;101005.84;5170272;28;20083;-90
2023/05/21 03:35:54;;;;;;;0.77;0.77;;;;;;;14.86;63.12;101005.84;5187297;28;20021;-89
2023/05/21 03:38:45;;;;;;;0.85;0.85;;;;;;;14.80;63.59;101012.25;5175852;28;20026;-89
2023/05/21 03:41:36;;;;;;;6.13;1.77;;;;;;;14.89;62.54;101009.22;5176728;28;20266;-90
2023/05/21 03:44:31;;;;;;;0.50;0.50;;;;;;;14.94;61.60;101009.06;5179646;28;20037;-90
2023/05/21 03:47:21;;;;;;;2.13;1.60;;;;;;;14.89;62.98;101013.66;5173429;28;20033;-88
2023/05/21 03:50:12;;;;;;;0.73;0.73;;;;;;;14.78;63.38;101020.25;5199878;28;20492;-90
2023/05/21 03:53:03;;;;;;;0.77;0.70;;;;;;;14.89;61.58;101021.59;5179922;28;20033;-90
2023/05/21 03:55:54;;;;;;;2.15;1.35;;;;;;;14.76;65.20;101021.22;5179961;28;20026;-89
2023/05/21 03:58:45;;;;;;;1.42;1.33;;;;;;;14.80;63.12;101014.88;5182348;28;20033;-89
2023/05/21 04:01:37;;;;;;;0.88;0.88;;;;;;;14.88;62.64;101010.16;5181520;28;20041;-90
2023/05/21 04:04:28;;;;;;;0.60;0.60;;;;;;;14.91;61.85;101009.19;5179599;28;20087;-90
2023/05/21 04:07:19;;;;;;;0.43;0.43;;;;;;;14.82;62.63;101013.06;5188866;28;20046;-93
2023/05/21 04:10:10;;;;;;;0.88;0.85;;;;;;;14.92;61.96;101017.03;5195065;28;20401;-90
2023/05/21 04:13:01;;;;;;;0.68;0.68;;;;;;;14.93;61.67;101018.78;5179024;28;20030;-89
2023/05/21 04:15:53;;;;;;;0.82;0.82;;;;;;;14.90;62.19;101020.69;5183644;28;20052;-91
2023/05/21 04:18:47;;;;;;;1.77;1.67;;;;;;;14.79;64.84;101032.53;5190566;28;20495;-90
2023/05/21 04:21:37;;;;;;;0.57;0.55;;;;;;;14.89;62.21;101021.59;5188555;28;20041;-90
2023/05/21 04:24:28;;;;;;;1.35;1.30;;;;;;;14.88;62.02;101019.88;5187985;28;20048;-88
2023/05/21 04:27:22;;;;;;;2.25;1.95;;;;;;;14.89;62.31;101022.44;5175091;28;20057;-91
2023/05/21 04:30:13;;;;;;;1.60;1.08;;;;;;;14.93;63.07;101029.34;5183721;28;20126;-89
2023/05/21 04:33:04;;;;;;;0.40;0.40;;;;;;;14.92;64.19;101030.25;5187216;28;20065;-89
2023/05/21 04:35:55;;;;;;;0.55;0.55;;;;;;;14.81;63.21;101028.97;5181207;28;20245;-89
2023/05/21 04:38:47;;;;;;;0.93;0.80;;;;;;;14.75;64.12;101032.72;5191763;28;20522;-90
2023/05/21 04:41:38;;;;;;;0.88;0.88;;;;;;;14.97;63.17;101031.84;5180262;28;20053;-90
2023/05/21 04:44:29;;;;;;;0.50;0.50;;;;;;;14.90;63.32;101033.88;5181258;28;20458;-90
2023/05/21 04:47:20;;;;;;;2.70;0.88;;;;;;;14.83;64.19;101037.69;5187501;28;20436;-90
2023/05/21 04:50:11;;;;;;;0.40;0.40;;;;;;;14.92;63.33;101030.25;5203240;28;20024;-91
2023/05/21 04:53:02;;;;;;;0.65;0.65;;;;;;;14.94;63.20;101024.91;5198362;28;20089;-91
2023/05/21 04:55:53;;;;;;;0.90;0.90;;;;;;;14.79;66.29;101032.53;5189924;28;20060;-90
2023/05/21 04:58:47;;;;;;;1.27;1.08;;;;;;;14.74;64.90;101034.50;5186767;28;20140;-89
2023/05/21 05:01:39;;;;;;;0.77;0.77;;;;;;;14.68;67.12;101028.59;5197427;28;20129;-90
2023/05/21 05:04:30;;;;;;;1.88;0.90;;;;;;;14.68;65.67;101032.09;5203089;28;20041;-90
2023/05/21 05:07:22;;;;;;;0.85;0.50;;;;;;;14.92;64.31;101026.75;5185045;28;20033;-91
2023/05/21 05:10:13;;;;;;;1.25;0.95;;;;;;;14.71;67.00;101029.34;5192955;28;20026;-88
2023/05/21 05:13:03;;;;;;;0.93;0.93;;;;;;;14.89;65.49;101024.25;5188875;28;20399;-91
2023/05/21 05:15:56;;;;;;;0.40;0.40;;;;;;;14.91;65.71;101017.13;5187125;28;20049;-90
2023/05/21 05:18:47;;;;;;;1.52;1.42;;;;;;;14.96;64.47;101020.44;5211884;28;20040;-90
2023/05/21 05:21:37;;;;;;;1.33;1.02;;;;;;;14.90;64.54;101018.88;5164443;28;20110;-89
2023/05/21 05:24:28;;;;;;;0.93;0.93;;;;;;;14.96;65.03;101007.22;5179975;28;20026;-89
2023/05/21 05:27:19;;;;;;;2.42;1.35;;;;;;;14.96;66.34;101001.94;5175874;28;20030;-89
2023/05/21 05:30:11;;;;;;;0.47;0.47;;;;;;;14.92;65.72;101002.97;5166678;28;20045;-89
2023/05/21 05:33:01;;;;;;;0.52;0.52;;;;;;;14.82;66.83;101006.91;5214025;28;20056;-89
2023/05/21 05:35:53;;;;;;;0.57;0.57;;;;;;;14.91;66.18;101004.75;5174870;28;20037;-88
2023/05/21 05:38:43;;;;;;;0.70;0.70;;;;;;;14.91;66.42;101011.84;5168950;28;20036;-89
2023/05/21 05:41:34;;;;;;;0.93;0.93;;;;;;;14.71;67.92;101004.72;5180038;28;20040;-90
2023/05/21 05:44:25;;;;;;;1.52;1.10;;;;;;;14.84;66.88;101005.06;5193336;28;20021;-90
2023/05/21 05:47:16;;;;;;;2.25;1.60;;;;;;;14.92;66.19;101010.88;5183995;28;20067;-89
2023/05/21 05:50:07;;;;;;;1.08;0.63;;;;;;;14.71;69.43;101008.19;5196979;28;20029;-89
2023/05/21 05:52:58;;;;;;;0.63;0.63;;;;;;;14.83;68.34;101006.84;5183413;28;20034;-90
2023/05/21 05:55:48;;;;;;;1.02;1.02;;;;;;;14.70;69.82;101009.13;5186615;28;20502;-89
2023/05/21 05:58:39;;;;;;;2.33;0.82;;;;;;;14.77;68.72;101017.66;5184510;28;20060;-89
2023/05/21 06:01:30;;;;;;;3.03;1.48;;;;;;;14.82;68.55;101007.75;5175158;28;20036;-89
2023/05/21 06:04:21;;;;;;;1.13;1.05;;;;;;;14.96;69.08;101017.78;5180448;28;20033;-90
2023/05/21 06:07:12;;;;;;;1.40;1.30;;;;;;;14.88;69.24;101009.31;5170073;28;20420;-90
2023/05/21 06:10:06;;;;;;;1.13;1.02;;;;;;;14.98;66.74;101015.06;5183988;28;20017;-89
2023/05/21 06:12:57;;;;;;;1.25;1.15;;;;;;;14.94;67.83;101014.34;5168309;28;20029;-90
2023/05/21 06:15:48;;;;;;;0.20;0.20;;;;;;;14.90;69.44;101012.75;5186538;28;20491;-89
2023/05/21 06:18:39;;;;;;;0.90;0.90;;;;;;;14.93;68.29;101017.91;5180562;28;20042;-89
2023/05/21 06:21:30;;;;;;;1.15;1.08;;;;;;;14.84;70.42;101012.97;5178878;28;20068;-89
2023/05/21 06:24:21;;;;;;;0.30;0.30;;;;;;;15.10;68.33;101018.06;5176720;28;20030;-89
2023/05/21 06:27:12;;;;;;;14.43;3.70;;;;;;;15.15;67.58;101022.31;5178360;28;20038;-89
2023/05/21 06:30:03;;;;;;;0.77;0.77;;;;;;;15.16;68.36;101021.41;5191536;28;20025;-89
2023/05/21 06:32:54;;;;;;;0.75;0.75;;;;;;;15.18;68.47;101017.75;5156049;28;20038;-89
2023/05/21 06:35:45;;;;;;;1.00;1.00;;;;;;;15.16;69.12;101014.31;5195191;28;20028;-89
2023/05/21 06:38:35;;;;;;;1.02;0.95;;;;;;;15.26;68.40;101009.50;5181960;28;20056;-89
2023/05/21 06:41:26;;;;;;;0.68;0.68;;;;;;;15.29;67.97;101008.53;5196640;28;20044;-90
2023/05/21 06:44:17;;;;;;;0.57;0.57;;;;;;;15.36;68.14;101010.84;5165766;28;20025;-90
2023/05/21 06:47:08;;;;;;;0.65;0.65;;;;;;;15.26;68.96;101013.00;5166115;28;20228;-90
2023/05/21 06:49:59;;;;;;;0.70;0.70;;;;;;;15.39;68.29;101017.75;5182348;28;20029;-90
2023/05/21 06:52:50;;;;;;;1.02;0.68;;;;;;;15.56;66.62;101014.41;5176294;28;20043;-90
2023/05/21 06:55:44;;;;;;;1.55;1.33;;;;;;;15.51;67.11;101008.44;5175930;28;20494;-89
2023/05/21 06:58:35;;;;;;;0.40;0.40;;;;;;;15.46;68.45;101016.56;5180334;28;20030;-91
2023/05/21 07:01:25;;;;;;;0.93;0.93;;;;;;;15.57;68.26;101013.50;5209793;28;20030;-89
2023/05/21 07:04:16;;;;;;;0.50;0.50;;;;;;;15.41;69.24;101013.28;5185568;28;20078;-89
2023/05/21 07:07:07;;;;;;;0.63;0.63;;;;;;;15.69;67.27;101012.94;5169625;28;20560;-89
2023/05/21 07:09:58;;;;;;;0.80;0.80;;;;;;;15.83;66.37;101019.41;5162370;28;20198;-90
2023/05/21 07:12:49;;;;;;;2.35;2.15;;;;;;;15.84;67.33;101013.22;5205324;28;20036;-89
2023/05/21 07:15:40;;;;;;;0.60;0.60;;;;;;;15.66;69.06;101018.34;5175686;28;20440;-89
2023/05/21 07:18:31;;;;;;;1.25;1.15;;;;;;;15.86;67.08;101019.31;5184142;28;20175;-89
2023/05/21 07:21:21;;;;;;;1.08;0.98;;;;;;;16.03;66.59;101027.34;5187256;28;20041;-89
2023/05/21 07:24:12;;;;;;;3.30;1.65;;;;;;;15.79;68.14;101023.97;5190856;28;20033;-90
2023/05/21 07:27:05;;;;;;;0.77;0.77;;;;;;;15.86;67.92;101025.47;5182007;28;20040;-89
2023/05/21 07:29:56;;;;;;;1.08;1.00;;;;;;;15.98;67.71;101028.47;5188603;28;20025;-90
2023/05/21 07:32:47;;;;;;;4.32;1.60;;;;;;;15.90;68.65;101020.91;5207597;28;20039;-90
2023/05/21 07:35:38;;;;;;;0.98;0.95;;;;;;;15.93;68.92;101026.03;5201217;28;20025;-90
2023/05/21 07:38:28;;;;;;;0.90;0.90;;;;;;;16.12;68.09;101019.91;5193456;28;20037;-89
2023/05/21 07:41:20;;;;;;;3.63;1.33;;;;;;;16.15;68.02;101025.94;5177447;28;20036;-90
2023/05/21 07:44:11;;;;;;;0.70;0.70;;;;;;;16.17;68.61;101021.44;5193770;28;20068;-89
2023/05/21 07:47:02;;;;;;;0.65;0.65;;;;;;;16.15;68.34;101020.63;5174847;28;20041;-89
2023/05/21 07:49:53;;;;;;;0.50;0.50;;;;;;;16.17;68.75;101018.78;5175923;28;20031;-90
2023/05/21 07:52:44;;;;;;;0.45;0.45;;;;;;;16.39;67.23;101014.28;5194133;28;20035;-91
2023/05/21 07:55:35;;;;;;;2.28;1.00;;;;;;;16.39;67.33;101017.78;5188934;28;20471;-90
2023/05/21 07:58:26;;;;;;;1.48;1.38;;;;;;;16.41;68.13;101013.28;5181292;28;20053;-89
2023/05/21 08:01:16;;;;;;;1.65;1.35;;;;;;;16.47;67.73;101014.78;5180073;28;20417;-90
2023/05/21 08:04:07;;;;;;;1.20;1.13;;;;;;;16.55;67.35;101012.63;5181858;28;20036;-90
2023/05/21 08:06:58;;;;;;;1.40;1.30;;;;;;;16.55;68.13;101015.28;5167116;28;20071;-90
2023/05/21 08:09:50;;;;;;;1.30;1.30;;;;;;;16.63;68.19;101005.19;5204938;28;20029;-89
2023/05/21 08:12:41;;;;;;;0.75;0.75;;;;;;;16.75;66.80;101009.03;5189641;28;20056;-89
2023/05/21 08:15:32;;;;;;;0.65;0.65;;;;;;;16.95;66.50;101005.44;5187415;28;20034;-89
2023/05/21 08:18:24;;;;;;;0.40;0.40;;;;;;;17.00;66.46;100997.25;5157700;28;20519;-91
2023/05/21 08:21:15;;;;;;;1.45;1.00;;;;;;;16.97;66.78;100998.28;5194078;28;20048;-90
2023/05/21 08:24:06;;;;;;;8.05;3.65;;;;;;;17.07;66.53;101003.97;5190686;28;20025;-91
2023/05/21 08:26:57;;;;;;;1.98;1.02;;;;;;;17.08;67.36;101012.75;5174981;28;20053;-89
2023/05/21 08:29:48;;;;;;;0.90;0.90;;;;;;;17.18;66.42;101003.41;5173907;28;20048;-90
2023/05/21 08:32:39;;;;;;;1.17;1.15;;;;;;;17.33;65.92;101000.91;5186693;28;20493;-90
2023/05/21 08:35:30;;;;;;;2.85;1.50;;;;;;;17.27;66.99;101000.31;5180046;28;20026;-91
2023/05/21 08:38:21;;;;;;;4.78;2.35;;;;;;;17.41;66.80;100990.78;5199543;28;20033;-90
2023/05/21 08:41:13;;;;;;;0.82;0.82;;;;;;;17.51;66.42;100997.31;5181292;28;20025;-90
2023/05/21 08:44:10;;;;;;;0.60;0.60;;;;;;;17.43;66.12;100994.22;5171114;28;20599;-90
2023/05/21 08:47:02;;;;;;;1.60;0.98;;;;;;;17.65;65.66;100987.78;5172879;28;20094;-89
2023/05/21 08:49:54;;;;;;;1.02;0.93;;;;;;;17.58;66.25;100988.09;5197497;28;20039;-90
2023/05/21 08:52:45;;;;;;;6.70;1.45;;;;;;;17.76;65.24;100996.03;5185634;28;20120;-90
2023/05/21 08:55:37;;;;;;;2.17;1.27;;;;;;;17.78;65.10;100992.34;5202268;28;20125;-90
2023/05/21 08:58:31;;;;;;;3.92;1.42;;;;;;;17.76;65.12;100985.44;5181825;28;20038;-90
2023/05/21 09:01:22;;;;;;;1.33;0.98;;;;;;;17.81;65.22;100993.13;5209155;28;20068;-90
2023/05/21 09:04:15;;;;;;;1.15;1.00;;;;;;;17.83;64.88;100992.13;5183439;28;20029;-90
2023/05/21 09:07:09;;;;;;;2.08;1.90;;;;;;;18.04;64.88;100989.28;5190540;28;20145;-91
2023/05/21 09:10:07;;;;;;;;;;;;;;;18.15;64.65;100986.88;5180944;28;20083;-90
2023/05/21 09:12:58;;;;;;;1.50;1.27;;;;;;;18.17;64.28;100990.31;5207438;28;19950;-90
2023/05/21 09:15:50;;;;;;;0.75;0.75;;;;;;;18.22;64.40;100990.91;5189811;28;20028;-90
2023/05/21 09:18:41;;;;;;;1.25;1.25;;;;;;;18.19;63.82;100992.88;5190849;28;20045;-89
2023/05/21 09:21:32;;;;;;;2.20;1.88;;;;;;;18.31;63.76;100994.00;5194840;28;20459;-90
2023/05/21 09:24:23;;;;;;;1.00;0.95;;;;;;;18.33;63.54;100993.00;5181506;28;20088;-89
2023/05/21 09:27:17;;;;;;;0.43;0.43;;;;;;;18.34;64.03;100993.84;5185694;28;20037;-90
2023/05/21 09:30:13;;;;;;;2.75;1.05;;;;;;;18.37;63.55;100994.53;5190403;28;20025;-90
2023/05/21 09:33:04;;;;;;;2.15;1.88;;;;;;;18.42;63.05;100988.97;5191274;28;20037;-90
2023/05/21 09:35:55;;;;;;;2.22;1.83;;;;;;;18.59;63.45;100989.81;5187390;28;20083;-90
2023/05/21 09:39:02;;;;;;;2.03;1.40;;;;;;;18.55;63.02;100986.47;5185696;28;20028;-89
2023/05/21 09:41:55;;;;;;;2.38;2.13;;;;;;;18.63;63.18;100986.06;5186361;28;20037;-90
2023/05/21 09:44:46;;;;;;;3.60;1.67;;;;;;;18.74;63.60;100988.09;5201965;28;20041;-90
2023/05/21 09:47:45;;;;;;;1.10;0.98;;;;;;;18.59;63.21;100984.50;5201384;28;20037;-92
2023/05/21 09:50:36;;;;;;;4.13;1.90;;;;;;;18.74;63.86;100977.47;5202739;28;20033;-90
2023/05/21 09:53:28;;;;;;;0.90;0.90;;;;;;;18.78;63.31;100982.53;5198036;28;20041;-89
2023/05/21 09:56:24;;;;;;;0.65;0.65;;;;;;;18.84;63.68;100979.50;5180644;28;20037;-90
2023/05/21 09:59:16;;;;;;;1.55;1.45;;;;;;;18.95;62.82;100980.72;5204751;28;20029;-90
2023/05/21 10:02:21;;;;;;;2.72;1.90;;;;;;;18.92;62.75;100970.22;5188265;28;20400;-91
2023/05/21 10:05:16;;;;;;;1.00;1.00;;;;;;;18.95;63.19;100970.09;5189080;28;20022;-90
2023/05/21 10:08:13;;;;;;;2.40;1.88;;;;;;;18.91;63.42;100971.16;5175035;28;20038;-91
2023/05/21 10:11:08;;;;;;;1.10;0.98;;;;;;;19.05;62.55;100967.72;5190416;28;20034;-91
2023/05/21 10:14:24;;;;;;;1.95;1.55;;;;;;;19.03;62.70;100951.88;5166328;28;20053;-90
2023/05/21 10:17:19;;;;;;;1.98;1.80;;;;;;;19.14;62.48;100948.56;5156415;28;20617;-90
2023/05/21 10:20:11;;;;;;;1.35;1.25;;;;;;;19.20;62.24;100958.84;5173122;28;20037;-91
2023/05/21 10:23:03;;;;;;;1.40;1.20;;;;;;;19.05;62.33;100949.97;5164106;28;20064;-91
2023/05/21 10:25:58;;;;;;;1.50;1.40;;;;;;;19.02;63.13;100948.34;5166335;28;20029;-90
2023/05/21 10:29:11;;;;;;;1.85;1.70;;;;;;;19.14;62.67;100949.41;5169964;28;20057;-91
2023/05/21 10:32:04;;;;;;;1.75;1.42;;;;;;;19.18;63.01;100945.66;5184247;28;20092;-92
2023/05/21 10:35:05;;;;;;;3.30;1.27;;;;;;;19.28;62.64;100951.25;5190425;28;20025;-90
2023/05/21 10:37:57;;;;;;;2.25;1.08;;;;;;;19.39;62.29;100947.94;5168824;28;20098;-91
2023/05/21 10:40:49;;;;;;;1.38;1.30;;;;;;;19.27;61.95;100946.03;5198989;28;20463;-91
2023/05/21 10:44:18;;;;;;;1.42;1.35;;;;;;;19.32;63.12;100941.28;5184359;28;20037;-90
2023/05/21 10:47:43;;;;;;;1.00;1.00;;;;;;;19.45;62.15;100934.28;5167937;28;20038;-91
2023/05/21 10:50:40;;;;;;;3.30;1.50;;;;;;;19.56;61.85;100932.75;5183173;28;20030;-90
2023/05/21 10:54:00;;;;;;;1.70;1.60;;;;;;;19.62;62.35;100927.91;5181057;28;20033;-91
2023/05/21 10:57:06;;;;;;;3.30;1.63;;;;;;;19.71;62.07;100925.63;5191892;28;20045;-90
2023/05/21 10:59:57;;;;;;;1.90;1.77;;;;;;;19.70;61.62;100935.44;5181185;28;20036;-89
2023/05/21 11:02:51;;;;;;;1.50;1.40;;;;;;;19.78;61.38;100933.16;5183214;28;20054;-91
2023/05/21 11:05:54;;;;;;;2.95;2.00;;;;;;;19.88;60.80;100927.25;5181647;28;20061;-89
2023/05/21 11:08:47;;;;;;;1.98;1.65;;;;;;;19.87;61.11;100914.91;5183772;28;20037;-90
2023/05/21 11:11:49;;;;;;;1.67;1.58;;;;;;;19.98;61.23;100923.06;5188337;28;20017;-91
2023/05/21 11:15:01;;;;;;;1.50;1.40;;;;;;;20.10;61.16;100913.44;5192177;28;20018;-90
2023/05/21 11:17:55;;;;;;;1.63;1.52;;;;;;;20.15;61.24;100913.13;5201029;28;20036;-91
2023/05/21 11:20:50;;;;;;;2.22;2.03;;;;;;;20.26;60.71;100907.97;5199710;28;20072;-92
2023/05/21 11:24:17;;;;;;;0.80;0.80;;;;;;;20.32;61.38;100899.56;5216257;28;20111;-91
2023/05/21 11:27:11;;;;;;;1.95;1.83;;;;;;;20.45;61.64;100900.47;5161023;28;20056;-91
2023/05/21 11:30:09;;;;;;;1.75;1.42;;;;;;;20.53;62.39;100893.81;5159446;28;20057;-91
2023/05/21 11:33:06;;;;;;;1.92;1.80;;;;;;;20.52;61.46;100892.94;5159657;28;20037;-92
2023/05/21 11:36:00;;;;;;;3.25;1.83;;;;;;;20.64;61.08;100899.25;5157723;28;20180;-91
2023/05/21 11:39:16;;;;;;;5.10;2.05;;;;;;;20.85;59.98;100890.81;5161694;28;20500;-91
2023/05/21 11:42:07;;;;;;;1.02;1.02;;;;;;;20.90;60.10;100888.69;5157858;28;20038;-91
2023/05/21 11:45:01;;;;;;;;;;;;;;;20.91;60.28;100893.06;5160384;28;20471;-92
2023/05/21 11:48:01;;;;;;;2.13;2.03;;;;;;;20.94;60.32;100887.53;5157837;28;19937;-91
2023/05/21 11:51:01;;;;;;;4.93;2.88;;;;;;;21.10;60.09;100884.63;5150605;28;20113;-92
2023/05/21 11:53:51;;;;;;;2.50;1.73;;;;;;;21.27;59.24;100879.94;5158693;28;20030;-91
2023/05/21 11:56:43;;;;;;;2.78;1.55;;;;;;;21.31;59.27;100878.78;5156648;28;20150;-91
2023/05/21 11:59:47;;;;;;;6.82;2.97;;;;;;;21.47;59.41;100875.88;5162345;28;20049;-91
2023/05/21 12:02:44;;;;;;;1.75;1.45;;;;;;;21.60;58.83;100881.22;5156615;28;20428;-91
2023/05/21 12:06:17;;;;;;;;;;;;;;;;;;;;;
2023/05/21 12:09:17;;;;;;;2.08;1.70;;;;;;;21.71;57.18;100870.66;5189845;28;20034;-92
2023/05/21 12:12:08;;;;;;;;;;;;;;;21.75;59.30;100864.09;5156728;28;20516;-91
2023/05/21 12:15:01;;;;;;;1.27;1.13;;;;;;;21.92;57.78;100868.25;5156535;28;19916;-91
2023/05/21 12:17:54;;;;;;;4.32;2.30;;;;;;;21.97;57.11;100866.06;5160378;28;20496;-91
2023/05/21 12:20:45;;;;;;;5.40;2.90;;;;;;;22.14;57.06;100878.22;5158494;28;20444;-92
2023/05/21 12:23:39;;;;;;;10.98;2.90;;;;;;;22.10;57.16;100865.19;5159210;28;20091;-92
2023/05/21 12:26:31;;;;;;;2.42;1.27;;;;;;;22.13;57.22;100870.28;5157165;28;20065;-92
2023/05/21 12:29:26;;;;;;;1.27;1.03;;;;;;;22.17;57.92;100863.78;5166594;28;20041;-92
2023/05/21 12:32:29;;;;;;;1.67;1.38;;;;;;;22.53;57.14;100863.81;5167431;28;20440;-92
2023/05/21 12:35:27;;;;;;;1.70;1.60;;;;;;;22.35;57.51;100853.50;5196219;28;20104;-91
2023/05/21 12:38:18;;;;;;;2.10;1.73;;;;;;;22.50;56.96;100850.69;5177350;28;20037;-93
2023/05/21 12:41:09;;;;;;;3.08;2.25;;;;;;;22.56;56.66;100852.91;5180031;28;20025;-94
2023/05/21 12:44:01;;;;;;;2.88;2.08;;;;;;;22.74;56.58;100850.66;5203923;28;20029;-92
2023/05/21 12:46:59;;;;;;;2.45;1.52;;;;;;;22.87;56.28;100846.03;5188036;28;20037;-91
2023/05/21 12:50:00;;;;;;;5.18;2.25;;;;;;;22.92;55.66;100849.25;5200534;28;20030;-91
2023/05/21 12:52:58;;;;;;;0.95;0.95;;;;;;;23.06;55.17;100844.63;5143153;28;20058;-91
2023/05/21 12:55:49;;;;;;;2.47;1.15;;;;;;;22.90;55.24;100835.13;5139114;28;20031;-91
2023/05/21 12:58:51;;;;;;;2.88;1.63;;;;;;;23.04;55.83;100836.72;5169939;28;20037;-91
2023/05/21 13:01:47;;;;;;;1.50;1.40;;;;;;;23.05;54.65;100840.25;5182233;28;20049;-92
2023/05/21 13:05:05;;;;;;;1.27;1.08;;;;;;;23.27;54.93;100842.13;5181786;28;20036;-92
2023/05/21 13:10:15;;;;;;;1.30;1.20;;;;;;;23.36;54.41;100853.91;5180226;28;20049;-86
2023/05/21 13:13:06;;;;;;;0.93;0.90;;;;;;;23.48;54.27;100854.75;5170197;28;20506;-83
2023/05/21 13:15:59;;;;;;;1.05;1.00;;;;;;;23.33;53.55;100848.81;5156624;28;20030;-87
2023/05/21 13:18:50;;;;;;;2.30;1.40;;;;;;;23.11;53.79;100853.13;5166809;28;20484;-85
2023/05/21 13:21:40;;;;;;;2.28;0.90;;;;;;;23.28;53.78;100849.19;5168567;28;20042;-86
2023/05/21 13:24:31;;;;;;;1.52;1.42;;;;;;;23.61;53.73;100834.06;5212011;23;20070;-90
2023/05/21 13:27:22;;;;;;;1.58;1.48;;;;;;;23.81;52.89;100831.59;5175922;28;20045;-90
2023/05/21 13:30:13;;;;;;;2.42;1.90;;;;;;;23.87;53.38;100833.78;5182224;28;20345;-89